TimeEST,TemperatureF,Dew PointF,Humidity,Sea Level PressureIn,VisibilityMPH,Wind Direction,Wind SpeedMPH,Gust SpeedMPH,PrecipitationIn,Events,Conditions,WindDirDegrees,DateUTC
12:53 AM,61.0,57.9,90,30.18,10.0,SSW,12.7,-,N/A,,Overcast,210,2012-11-13 05:53:00
1:53 AM,61.0,57.9,90,30.16,10.0,South,10.4,17.3,N/A,,Overcast,180,2012-11-13 06:53:00
2:20 AM,60.8,57.2,88,30.15,10.0,South,8.1,-,N/A,,Overcast,180,2012-11-13 07:20:00
2:53 AM,62.1,57.0,84,30.13,10.0,South,10.4,23.0,N/A,,Overcast,190,2012-11-13 07:53:00
3:53 AM,62.1,57.9,86,30.14,10.0,West,17.3,24.2,0.00,,Overcast,270,2012-11-13 08:53:00
4:05 AM,57.2,51.8,82,30.16,10.0,West,8.1,23.0,N/A,,Overcast,260,2012-11-13 09:05:00
4:53 AM,53.1,48.9,86,30.18,10.0,West,6.9,-,0.00,Rain,Light Rain,270,2012-11-13 09:53:00
5:19 AM,51.8,48.2,88,30.20,10.0,WNW,6.9,-,0.00,Rain,Light Rain,290,2012-11-13 10:19:00
5:53 AM,50.0,48.0,93,30.20,5.0,NW,5.8,-,0.03,Rain,Light Rain,310,2012-11-13 10:53:00
6:53 AM,48.9,46.0,90,30.23,10.0,North,6.9,-,0.00,,Overcast,10,2012-11-13 11:53:00
7:44 AM,46.4,44.6,93,30.27,2.5,NNW,5.8,-,0.02,Rain,Rain,330,2012-11-13 12:44:00
7:53 AM,46.9,44.1,90,30.28,1.8,NNW,8.1,-,0.04,Rain,Rain,330,2012-11-13 12:53:00
7:57 AM,46.4,44.6,93,30.28,2.0,NNW,6.9,-,0.00,Rain,Light Rain,330,2012-11-13 12:57:00
8:06 AM,46.4,44.6,93,30.28,3.0,NW,4.6,-,0.00,Rain,Light Rain,320,2012-11-13 13:06:00
8:27 AM,46.4,44.6,93,30.29,9.0,NNW,6.9,-,0.01,Rain,Light Rain,330,2012-11-13 13:27:00
8:43 AM,46.4,42.8,87,30.28,10.0,NNW,5.8,-,0.01,,Overcast,330,2012-11-13 13:43:00
8:53 AM,46.9,44.1,90,30.29,10.0,North,5.8,-,0.01,,Overcast,360,2012-11-13 13:53:00
9:42 AM,46.4,42.8,87,30.28,10.0,North,5.8,-,0.00,,Overcast,10,2012-11-13 14:42:00
9:51 AM,46.4,42.8,87,30.28,10.0,North,8.1,-,0.00,,Overcast,350,2012-11-13 14:51:00
9:53 AM,46.0,42.1,86,30.29,10.0,NNW,9.2,-,0.00,Rain,Light Rain,340,2012-11-13 14:53:00
10:02 AM,46.4,42.8,87,30.27,10.0,North,6.9,-,0.00,Rain,Light Rain,350,2012-11-13 15:02:00
10:28 AM,46.4,42.8,87,30.29,9.0,North,6.9,-,0.01,Rain,Light Rain,10,2012-11-13 15:28:00
10:35 AM,44.6,42.8,93,30.28,10.0,North,11.5,-,0.01,Rain,Light Rain,10,2012-11-13 15:35:00
10:53 AM,45.0,42.1,90,30.29,10.0,North,12.7,-,0.01,Rain,Light Rain,10,2012-11-13 15:53:00
11:18 AM,42.8,39.2,87,30.30,8.0,North,9.2,20.7,0.01,Rain,Light Rain,360,2012-11-13 16:18:00
11:53 AM,43.0,39.0,86,30.31,10.0,North,6.9,16.1,0.02,,Overcast,350,2012-11-13 16:53:00
12:53 PM,43.0,37.0,80,30.31,10.0,North,10.4,-,0.00,,Overcast,360,2012-11-13 17:53:00
1:53 PM,43.0,36.0,76,30.30,10.0,North,10.4,-,0.01,,Overcast,10,2012-11-13 18:53:00
2:53 PM,44.1,35.1,71,30.32,10.0,NNW,11.5,17.3,N/A,,Overcast,340,2012-11-13 19:53:00
3:02 PM,44.6,35.6,71,30.32,10.0,NNW,9.2,-,N/A,,Overcast,340,2012-11-13 20:02:00
3:53 PM,44.1,34.0,68,30.33,10.0,North,11.5,-,N/A,,Overcast,360,2012-11-13 20:53:00
4:53 PM,42.1,30.9,65,30.35,10.0,North,6.9,-,N/A,,Mostly Cloudy,350,2012-11-13 21:53:00
5:53 PM,41.0,28.0,60,30.38,10.0,NNW,5.8,-,N/A,,Clear,330,2012-11-13 22:53:00
6:53 PM,39.9,28.0,63,30.39,10.0,NNW,4.6,-,N/A,,Clear,330,2012-11-13 23:53:00
7:53 PM,39.0,27.0,62,30.42,10.0,North,6.9,-,N/A,,Clear,350,2012-11-14 00:53:00
8:53 PM,37.9,27.0,65,30.45,10.0,North,5.8,-,N/A,,Clear,350,2012-11-14 01:53:00
9:53 PM,37.0,27.0,67,30.45,10.0,NNW,6.9,-,N/A,,Clear,330,2012-11-14 02:53:00
10:53 PM,37.0,26.1,65,30.46,10.0,North,5.8,-,N/A,,Partly Cloudy,350,2012-11-14 03:53:00
11:53 PM,36.0,24.1,62,30.46,10.0,North,4.6,-,N/A,,Clear,350,2012-11-14 04:53:00